Time;durP1;ratioP1;P1;durP2;ratioP2;P2;SDS_P1;SDS_P2;PMS_P1;PMS_P2;Temp;Humidity;BMP_temperature;BMP_pressure;BME280_temperature;BME280_humidity;BME280_pressure;Samples;Min_cycle;Max_cycle;Signal;HPM_P1;HPM_P2
2021/12/19 00:00:09;;;;;;;65.70;29.05;;;;;;;6.26;98.36;102984.13;4921051;29;20051;-66
2021/12/19 00:03:34;;;;;;;64.65;28.05;;;;;;;6.49;98.02;102970.53;4926931;29;20411;-66
2021/12/19 00:08:28;;;;;;;62.78;28.38;;;;;;;6.63;96.45;102970.13;4941053;29;20059;-66
2021/12/19 00:10:57;;;;;;;59.97;29.42;;;;;;;6.66;95.60;102964.19;4941070;29;20050;-66
2021/12/19 00:13:25;;;;;;;62.90;28.83;;;;;;;6.72;96.25;102967.91;4941059;29;20055;-66
2021/12/19 00:15:54;;;;;;;66.15;29.15;;;;;;;6.67;94.92;102959.56;4940857;29;20399;-65
2021/12/19 00:18:21;;;;;;;57.00;28.10;;;;;;;6.73;95.42;102953.13;4940872;29;20062;-66
2021/12/19 00:20:49;;;;;;;64.20;29.63;;;;;;;6.93;94.80;102948.19;4940959;29;20056;-66
2021/12/19 00:23:38;;;;;;;62.63;28.90;;;;;;;6.79;94.00;102944.00;4940969;29;20051;-66
2021/12/19 00:26:05;;;;;;;62.75;29.30;;;;;;;6.53;94.99;102939.75;4940872;29;20040;-67
2021/12/19 00:28:33;;;;;;;65.50;30.25;;;;;;;6.56;95.90;102943.91;4940896;29;20054;-65
2021/12/19 00:31:01;;;;;;;60.90;28.52;;;;;;;6.32;96.73;102942.16;4940481;29;20060;-66
2021/12/19 00:33:28;;;;;;;61.67;28.23;;;;;;;6.16;98.67;102945.50;4939561;29;20132;-65
2021/12/19 00:35:55;;;;;;;65.40;30.85;;;;;;;6.18;98.81;102938.75;4939066;29;20527;-65
2021/12/19 00:38:23;;;;;;;65.63;29.48;;;;;;;6.54;97.84;102924.13;4940595;29;20055;-65
2021/12/19 00:40:51;;;;;;;62.65;28.80;;;;;;;6.44;96.62;102932.09;4955024;28;20055;-65
2021/12/19 00:43:44;;;;;;;54.47;26.33;;;;;;;6.68;96.08;102923.72;4923507;29;20056;-65
2021/12/19 00:46:15;;;;;;;62.63;27.52;;;;;;;6.42;96.81;102915.06;4940023;29;20055;-67
2021/12/19 00:48:45;;;;;;;57.28;26.95;;;;;;;6.26;96.67;102924.75;4940628;29;20078;-67
2021/12/19 00:51:14;;;;;;;;;;;;;;;6.45;97.56;102918.16;4955409;28;20056;-67
2021/12/19 00:53:44;;;;;;;62.10;28.50;;;;;;;6.24;97.43;102928.81;4938641;29;20378;-67
2021/12/19 00:56:12;;;;;;;64.03;29.13;;;;;;;6.12;98.21;102915.03;4939905;29;20047;-65
2021/12/19 00:58:39;;;;;;;65.38;28.25;;;;;;;6.30;97.85;102915.03;4940208;29;20517;-65
2021/12/19 01:01:08;;;;;;;60.25;28.60;;;;;;;6.28;97.25;102917.16;4940109;29;20044;-66
2021/12/19 01:03:36;;;;;;;63.10;27.83;;;;;;;6.65;96.93;102915.13;4926407;29;20395;-65
2021/12/19 01:06:04;;;;;;;57.72;27.30;;;;;;;6.87;95.22;102901.75;4919702;29;20063;-65
2021/12/19 01:08:31;;;;;;;57.63;26.20;;;;;;;6.88;93.50;102906.97;4920703;29;20056;-64
2021/12/19 01:10:58;;;;;;;56.35;27.58;;;;;;;6.85;94.29;102913.75;4920796;29;20495;-65
2021/12/19 01:13:26;;;;;;;61.55;26.83;;;;;;;6.62;95.47;102910.97;4920868;29;20055;-65
2021/12/19 01:15:55;;;;;;;64.30;28.10;;;;;;;6.59;95.73;102905.94;4920801;29;20059;-65
2021/12/19 01:18:23;;;;;;;58.72;28.00;;;;;;;6.52;96.34;102910.69;4919646;29;20051;-65
2021/12/19 01:20:50;;;;;;;60.33;27.48;;;;;;;6.68;95.80;102911.91;4921053;29;20056;-65
2021/12/19 01:23:17;;;;;;;54.03;26.00;;;;;;;6.83;94.22;102904.13;4919287;29;20052;-65
2021/12/19 01:25:44;;;;;;;58.60;27.70;;;;;;;6.74;94.72;102898.16;4920421;29;20055;-64
2021/12/19 01:28:12;;;;;;;57.75;26.92;;;;;;;6.68;95.68;102904.56;4920567;29;20044;-66
2021/12/19 01:30:39;;;;;;;61.75;27.20;;;;;;;6.91;95.07;102898.28;4919363;29;20055;-65
2021/12/19 01:33:06;;;;;;;52.50;23.88;;;;;;;6.80;94.02;102896.34;4920457;29;20059;-65
2021/12/19 01:35:34;;;;;;;54.88;24.52;;;;;;;6.70;94.05;102907.06;4919179;29;20068;-66
2021/12/19 01:38:01;;;;;;;57.88;25.42;;;;;;;6.63;93.96;102898.94;4903399;29;20052;-65
2021/12/19 01:40:29;;;;;;;52.88;23.83;;;;;;;6.56;95.51;102900.94;4920251;29;20087;-66
2021/12/19 01:42:57;;;;;;;56.63;26.40;;;;;;;6.65;95.32;102899.56;4919057;29;20052;-64
2021/12/19 01:45:31;;;;;;;55.92;25.92;;;;;;;6.73;95.11;102907.41;4920282;29;20048;-67
2021/12/19 01:48:00;;;;;;;54.65;24.73;;;;;;;6.59;95.31;102905.13;4918814;29;20384;-64
2021/12/19 01:50:31;;;;;;;50.60;24.33;;;;;;;6.67;95.50;102899.31;4903616;29;20085;-65
2021/12/19 01:53:03;;;;;;;51.50;23.73;;;;;;;6.55;94.93;102896.56;4920156;29;20067;-66
2021/12/19 01:55:30;;;;;;;51.83;24.02;;;;;;;6.59;96.24;102896.91;4919753;29;20056;-65
2021/12/19 01:57:58;;;;;;;45.33;21.38;;;;;;;6.44;95.81;102900.06;4919404;29;20088;-65
2021/12/19 02:00:28;;;;;;;43.17;19.58;;;;;;;6.40;95.94;102896.13;4920158;29;20064;-67
2021/12/19 02:02:57;;;;;;;40.40;19.90;;;;;;;6.34;96.64;102897.06;4911531;29;20051;-67
2021/12/19 02:05:27;;;;;;;45.40;20.83;;;;;;;6.50;95.85;102893.66;4938760;29;20059;-65
2021/12/19 02:07:55;;;;;;;46.90;21.08;;;;;;;6.49;95.59;102894.75;4938607;29;20050;-66
2021/12/19 02:10:25;;;;;;;46.55;21.40;;;;;;;6.56;95.41;102892.72;4938789;29;20066;-65
2021/12/19 02:12:53;;;;;;;50.88;23.42;;;;;;;6.38;96.64;102891.97;4938742;29;20056;-65
2021/12/19 02:15:23;;;;;;;50.47;22.83;;;;;;;6.37;97.32;102887.53;4938509;29;20059;-66
2021/12/19 02:17:53;;;;;;;51.45;22.30;;;;;;;6.60;96.94;102893.94;4938719;29;20051;-65
2021/12/19 02:20:21;;;;;;;;;;;;;;;6.40;96.60;102884.34;4939129;29;20055;-66
2021/12/19 02:22:48;;;;;;;46.97;20.67;;;;;;;6.48;96.67;102886.75;4938463;28;19923;-65
2021/12/19 02:25:16;;;;;;;41.67;18.27;;;;;;;6.34;96.73;102882.53;4938430;29;20060;-65
2021/12/19 02:27:43;;;;;;;42.42;19.85;;;;;;;6.09;98.47;102882.69;4938385;29;20410;-65
2021/12/19 02:30:12;;;;;;;44.60;18.70;;;;;;;6.30;98.13;102873.13;4937291;29;20048;-66
2021/12/19 02:32:40;;;;;;;37.90;18.00;;;;;;;6.37;97.17;102882.06;4938613;29;20144;-65
2021/12/19 02:35:12;;;;;;;40.35;18.13;;;;;;;6.22;97.55;102871.56;4936517;29;20082;-65
2021/12/19 02:49:05;;;;;;;42.15;18.42;;;;;;;5.91;100.00;102858.09;4941097;28;20047;-65
2021/12/19 02:51:34;;;;;;;46.22;19.80;;;;;;;6.04;100.00;102865.28;4938191;29;20096;-65
2021/12/19 02:54:02;;;;;;;43.63;18.80;;;;;;;5.98;99.74;102863.50;4938095;29;20063;-66
2021/12/19 02:56:30;;;;;;;47.35;19.42;;;;;;;6.09;99.29;102851.75;4938014;29;20063;-64
2021/12/19 02:58:58;;;;;;;41.22;18.10;;;;;;;6.18;99.03;102853.09;4936805;29;20062;-66
2021/12/19 03:01:26;;;;;;;45.17;19.58;;;;;;;6.17;98.81;102840.50;4938440;29;20060;-65
2021/12/19 03:03:53;;;;;;;45.03;19.48;;;;;;;6.13;99.18;102851.06;4922091;29;20056;-66
2021/12/19 03:06:21;;;;;;;44.38;19.52;;;;;;;6.44;98.86;102849.97;4917365;29;20063;-65
2021/12/19 03:08:51;;;;;;;39.58;19.33;;;;;;;6.54;97.79;102848.31;4918773;29;20052;-64
2021/12/19 03:19:39;;;;;;;43.53;20.08;;;;;;;6.45;96.85;102830.56;4917162;29;20068;-67
2021/12/19 03:22:06;;;;;;;39.15;19.65;;;;;;;6.31;96.79;102834.56;4918922;29;20060;-66
2021/12/19 03:24:33;;;;;;;46.17;20.95;;;;;;;6.12;98.02;102834.88;4918647;29;20067;-65
2021/12/19 03:27:00;;;;;;;46.05;20.83;;;;;;;6.03;98.80;102836.28;4918386;29;20055;-66
2021/12/19 03:29:29;;;;;;;46.63;20.60;;;;;;;6.15;98.71;102832.53;4918838;29;20048;-66
2021/12/19 03:31:56;;;;;;;41.85;19.50;;;;;;;6.22;98.15;102827.78;4918885;29;20048;-65
2021/12/19 03:34:23;;;;;;;41.67;20.30;;;;;;;6.12;98.69;102832.97;4918576;29;20060;-65
2021/12/19 03:36:52;;;;;;;45.42;20.08;;;;;;;6.10;99.08;102835.09;4918391;29;20048;-65
2021/12/19 03:39:27;;;;;;;45.55;20.50;;;;;;;6.15;99.39;102829.78;4918399;29;20048;-65
2021/12/19 03:41:56;;;;;;;52.30;22.17;;;;;;;6.13;99.01;102828.34;4900998;29;20567;-65
2021/12/19 03:44:23;;;;;;;49.72;21.65;;;;;;;6.22;98.54;102835.16;4918537;29;20060;-65
2021/12/19 03:46:51;;;;;;;45.47;21.48;;;;;;;6.12;98.70;102834.88;4917027;29;20063;-64
2021/12/19 03:49:19;;;;;;;48.08;21.25;;;;;;;6.16;98.05;102836.91;4918512;29;20381;-65
2021/12/19 03:51:48;;;;;;;45.63;20.83;;;;;;;6.08;98.05;102834.53;4917135;29;20059;-66
2021/12/19 03:54:15;;;;;;;51.47;23.35;;;;;;;6.22;98.33;102841.47;4918228;29;20052;-66
2021/12/19 03:56:42;;;;;;;44.65;20.42;;;;;;;5.99;99.90;102846.84;4917939;29;20060;-65
2021/12/19 03:59:09;;;;;;;52.67;21.60;;;;;;;6.05;99.52;102845.09;4916408;29;20080;-65
2021/12/19 04:01:37;;;;;;;47.97;20.65;;;;;;;6.07;99.29;102840.19;4918383;29;20052;-65
2021/12/19 04:04:04;;;;;;;43.10;20.17;;;;;;;6.07;98.32;102846.50;4935885;29;20128;-65
2021/12/19 04:06:32;;;;;;;44.17;19.63;;;;;;;5.80;99.24;102836.97;4936912;29;20051;-67
2021/12/19 04:08:59;;;;;;;42.30;19.27;;;;;;;5.91;99.30;102833.47;4937154;29;20056;-64
2021/12/19 04:11:26;;;;;;;42.60;19.27;;;;;;;5.78;99.83;102832.78;4937240;29;20071;-65
2021/12/19 04:13:53;;;;;;;47.08;20.15;;;;;;;5.97;99.83;102831.72;4937434;29;20051;-65
2021/12/19 04:16:21;;;;;;;39.45;17.42;;;;;;;5.92;99.36;102840.63;4936969;29;20055;-66
2021/12/19 04:18:48;;;;;;;35.58;17.95;;;;;;;5.87;98.56;102834.16;4937134;29;20463;-66
2021/12/19 04:21:16;;;;;;;40.80;19.30;;;;;;;5.75;99.35;102825.91;4953178;28;20052;-64
2021/12/19 04:23:43;;;;;;;37.03;18.25;;;;;;;5.78;99.87;102824.59;4955452;29;20054;-64
2021/12/19 04:26:10;;;;;;;43.65;18.70;;;;;;;5.81;99.98;102827.69;4938982;29;20070;-64
2021/12/19 04:28:37;;;;;;;43.28;18.63;;;;;;;5.77;100.00;102818.28;4940777;29;20059;-64
2021/12/19 04:31:05;;;;;;;44.35;20.02;;;;;;;5.97;100.00;102818.03;4940895;29;20062;-66
2021/12/19 04:33:33;;;;;;;39.92;17.92;;;;;;;5.91;99.43;102810.78;4940855;29;20522;-66
2021/12/19 04:36:04;;;;;;;40.65;17.85;;;;;;;5.99;99.25;102814.03;4940457;29;20058;-66
2021/12/19 04:44:36;;;;;;;36.92;16.75;;;;;;;6.16;98.40;102800.50;4940634;29;20596;-65
2021/12/19 05:02:44;;;;;;;43.33;18.10;;;;;;;6.36;97.68;102790.91;4935089;29;20048;-65
2021/12/19 05:16:17;;;;;;;38.10;16.63;;;;;;;6.42;96.96;102779.03;4919516;29;20059;-64
2021/12/19 05:18:46;;;;;;;35.22;15.70;;;;;;;6.43;96.47;102785.34;4919252;29;20068;-65
2021/12/19 05:21:20;;;;;;;34.08;15.88;;;;;;;6.31;96.34;102782.56;4903923;29;20045;-65
2021/12/19 05:24:17;;;;;;;30.85;14.13;;;;;;;6.20;96.90;102785.28;4919142;29;20059;-65
2021/12/19 05:26:42;;;;;;;;;;;;;;;6.12;97.43;102785.66;4918872;29;20075;-65
2021/12/19 05:29:09;;;;;;;32.25;13.98;;;;;;;5.96;97.75;102781.66;4920491;29;19930;-66
2021/12/19 05:31:37;;;;;;;32.70;13.85;;;;;;;6.12;98.07;102782.91;4918680;29;20082;-65
2021/12/19 05:34:04;;;;;;;30.15;13.73;;;;;;;6.12;97.73;102783.72;4903255;29;20378;-65
2021/12/19 05:47:26;;;;;;;30.10;13.70;;;;;;;6.06;99.34;102773.72;4920087;29;20067;-66
2021/12/19 05:49:53;;;;;;;33.50;14.90;;;;;;;6.26;98.85;102771.50;4919068;29;20040;-66
2021/12/19 05:52:20;;;;;;;31.10;14.25;;;;;;;6.08;98.76;102770.75;4918685;29;20056;-66
2021/12/19 05:54:47;;;;;;;33.42;14.70;;;;;;;6.04;99.19;102775.00;4920003;29;20052;-66
2021/12/19 05:57:15;;;;;;;33.85;15.95;;;;;;;6.13;99.05;102770.88;4920220;29;20052;-66
2021/12/19 05:59:42;;;;;;;30.00;14.95;;;;;;;6.16;98.55;102775.88;4918854;29;20062;-65
2021/12/19 06:02:09;;;;;;;30.88;14.38;;;;;;;6.35;98.07;102763.78;4921073;29;20067;-65
2021/12/19 06:04:37;;;;;;;27.58;14.65;;;;;;;6.30;97.56;102769.13;4939331;29;20052;-67
2021/12/19 06:07:04;;;;;;;27.77;13.98;;;;;;;6.16;97.47;102773.97;4938737;29;20376;-65
2021/12/19 06:09:31;;;;;;;31.33;15.50;;;;;;;5.97;98.06;102771.53;4937359;29;20047;-65
2021/12/19 06:11:59;;;;;;;33.85;16.02;;;;;;;5.95;98.44;102770.94;4938797;29;20677;-66
2021/12/19 06:14:31;;;;;;;33.05;16.08;;;;;;;5.82;99.40;102779.31;4937447;29;20063;-66
2021/12/19 06:16:59;;;;;;;34.88;15.73;;;;;;;5.56;100.00;102766.84;4952353;28;20051;-66
2021/12/19 06:19:27;;;;;;;33.30;15.65;;;;;;;5.70;100.00;102768.34;4938993;28;20066;-65
2021/12/19 06:21:54;;;;;;;33.35;15.63;;;;;;;5.70;100.00;102765.59;4952998;28;20043;-66
2021/12/19 06:24:22;;;;;;;31.92;15.93;;;;;;;5.90;100.00;102765.34;4938563;29;20050;-66
2021/12/19 06:26:49;;;;;;;34.03;15.90;;;;;;;5.70;100.00;102762.88;4938427;29;20051;-66
2021/12/19 06:29:16;;;;;;;35.90;17.10;;;;;;;5.77;100.00;102763.59;4938243;29;20043;-66
2021/12/19 06:31:44;;;;;;;34.20;16.20;;;;;;;5.87;100.00;102755.72;4937236;29;20052;-66
2021/12/19 06:34:11;;;;;;;32.97;15.75;;;;;;;5.68;100.00;102756.78;4938379;29;20071;-66
2021/12/19 06:36:40;;;;;;;31.00;16.00;;;;;;;5.94;100.00;102767.38;4936737;29;20058;-63
2021/12/19 06:39:07;;;;;;;30.92;16.40;;;;;;;5.83;100.00;102764.59;4937964;29;20062;-65
2021/12/19 06:41:38;;;;;;;30.75;15.52;;;;;;;5.88;100.00;102768.31;4938138;29;20043;-64
2021/12/19 06:44:06;;;;;;;31.55;15.70;;;;;;;5.86;99.89;102759.50;4937896;29;20051;-64
2021/12/19 06:46:33;;;;;;;29.48;15.52;;;;;;;5.95;100.00;102760.84;4936934;29;20356;-64
2021/12/19 06:49:00;;;;;;;30.40;15.75;;;;;;;5.84;99.46;102769.00;4936907;29;20086;-65
2021/12/19 06:51:28;;;;;;;32.22;15.75;;;;;;;5.59;100.00;102750.81;4935999;29;20511;-65
2021/12/19 06:53:55;;;;;;;30.63;16.63;;;;;;;5.62;100.00;102760.44;4952541;28;20494;-65
2021/12/19 06:56:23;;;;;;;28.23;16.13;;;;;;;5.69;100.00;102761.19;4936686;29;20075;-66
2021/12/19 06:58:50;;;;;;;29.55;16.58;;;;;;;5.77;100.00;102763.59;4952609;29;20052;-70
2021/12/19 07:01:17;;;;;;;31.08;16.15;;;;;;;5.97;100.00;102766.06;4938139;29;20043;-65
2021/12/19 07:03:44;;;;;;;31.38;16.83;;;;;;;5.61;100.00;102773.25;4923677;29;20060;-64
2021/12/19 07:06:17;;;;;;;40.03;19.70;;;;;;;5.65;100.00;102771.75;4918908;29;20554;-64
2021/12/19 07:08:44;;;;;;;36.63;19.70;;;;;;;5.71;100.00;102775.47;4918565;29;20052;-65
2021/12/19 07:11:12;;;;;;;34.40;17.30;;;;;;;5.77;99.80;102777.25;4917547;29;20048;-66
2021/12/19 07:13:39;;;;;;;38.13;18.42;;;;;;;5.79;100.00;102775.13;4918875;29;20056;-67
2021/12/19 07:16:07;;;;;;;31.73;16.70;;;;;;;5.87;99.60;102774.00;4918916;29;20060;-66
2021/12/19 07:18:36;;;;;;;33.85;17.67;;;;;;;5.53;100.00;102770.00;4917446;29;20048;-66
2021/12/19 07:21:05;;;;;;;31.55;16.08;;;;;;;5.80;100.00;102771.34;4918881;29;20056;-66
2021/12/19 07:23:32;;;;;;;29.58;15.15;;;;;;;5.80;100.00;102773.25;4918960;29;20086;-65
2021/12/19 07:26:00;;;;;;;32.25;16.30;;;;;;;5.69;99.87;102763.91;4917391;29;20052;-65
2021/12/19 07:28:28;;;;;;;27.75;13.55;;;;;;;5.84;99.28;102766.28;4918390;29;20048;-64
2021/12/19 07:30:56;;;;;;;23.63;13.32;;;;;;;5.76;98.60;102772.88;4918618;29;20044;-65
2021/12/19 07:33:24;;;;;;;24.95;12.68;;;;;;;5.86;98.64;102758.69;4917408;29;20056;-66
2021/12/19 07:35:52;;;;;;;21.92;12.43;;;;;;;5.86;98.16;102764.97;4918751;29;20078;-65
2021/12/19 07:38:41;;;;;;;25.55;12.35;;;;;;;5.89;98.03;102760.94;4918411;29;20052;-65
2021/12/19 07:41:08;;;;;;;25.90;13.10;;;;;;;6.03;98.25;102752.31;4918679;29;20511;-65
2021/12/19 07:43:35;;;;;;;25.85;12.70;;;;;;;6.18;97.20;102751.84;4919073;29;20055;-65
2021/12/19 07:46:04;;;;;;;24.13;13.07;;;;;;;6.03;96.92;102751.47;4918496;29;20052;-65
2021/12/19 07:48:31;;;;;;;24.77;13.25;;;;;;;6.05;97.32;102758.38;4918466;29;20071;-65
2021/12/19 07:50:58;;;;;;;25.10;13.95;;;;;;;5.62;97.63;102754.97;4918522;29;20052;-65
2021/12/19 07:53:25;;;;;;;28.23;13.70;;;;;;;5.67;99.57;102758.69;4918501;29;20048;-66
2021/12/19 07:55:53;;;;;;;24.65;13.15;;;;;;;5.81;98.61;102753.84;4919542;29;20052;-65
2021/12/19 07:58:20;;;;;;;26.70;13.27;;;;;;;6.02;97.95;102761.56;4922287;29;20052;-66
2021/12/19 08:00:47;;;;;;;26.38;12.70;;;;;;;5.98;97.46;102759.56;4922472;29;20056;-69
2021/12/19 08:03:15;;;;;;;27.42;12.98;;;;;;;5.90;97.00;102754.41;4931483;29;20059;-67
2021/12/19 08:05:42;;;;;;;24.08;12.13;;;;;;;5.96;97.50;102761.69;4941081;29;20051;-65
2021/12/19 08:08:11;;;;;;;24.73;13.18;;;;;;;5.94;97.07;102758.34;4923841;29;20078;-65
2021/12/19 08:13:06;;;;;;;25.85;12.93;;;;;;;5.87;96.79;102766.66;4941095;29;20055;-66
2021/12/19 08:15:35;;;;;;;28.30;12.73;;;;;;;5.97;96.37;102768.81;4955470;29;20063;-65
2021/12/19 08:18:03;;;;;;;25.27;13.00;;;;;;;5.97;95.59;102771.53;4939720;29;20052;-65
2021/12/19 08:20:30;;;;;;;24.33;12.57;;;;;;;5.88;95.96;102765.56;4939725;29;20056;-66
2021/12/19 08:22:58;;;;;;;25.52;11.93;;;;;;;5.87;96.46;102763.91;4940637;29;20048;-65
2021/12/19 08:25:26;;;;;;;24.67;12.00;;;;;;;5.73;96.68;102756.94;4955195;29;20121;-66
2021/12/19 08:27:54;;;;;;;24.27;11.75;;;;;;;5.76;97.31;102753.72;4939135;29;20048;-66
2021/12/19 08:30:24;;;;;;;22.70;11.95;;;;;;;6.13;96.67;102760.78;4940729;29;20055;-65
2021/12/19 08:32:52;;;;;;;;;;;;;;;6.06;95.96;102751.84;4941259;29;20051;-65
2021/12/19 08:35:19;;;;;;;22.60;11.35;;;;;;;6.16;95.54;102752.09;4940819;29;19931;-67
2021/12/19 08:37:46;;;;;;;25.10;13.70;;;;;;;6.25;95.38;102752.59;4940480;29;20086;-65
2021/12/19 08:40:14;;;;;;;20.88;11.85;;;;;;;6.04;94.45;102747.66;4940586;29;20059;-65
2021/12/19 08:42:41;;;;;;;21.65;11.20;;;;;;;6.07;95.02;102752.66;4939514;29;20058;-68
2021/12/19 08:45:09;;;;;;;23.25;11.55;;;;;;;6.05;94.93;102738.41;4939346;29;20051;-65
2021/12/19 08:47:36;;;;;;;21.48;11.27;;;;;;;6.05;94.71;102752.09;4940395;29;20055;-65
2021/12/19 08:50:05;;;;;;;20.65;11.80;;;;;;;5.93;94.75;102756.69;4940399;29;20051;-65
2021/12/19 08:52:33;;;;;;;18.75;10.80;;;;;;;5.93;95.09;102748.47;4940510;29;20058;-65
2021/12/19 08:55:00;;;;;;;19.60;10.88;;;;;;;5.96;94.41;102751.59;4940735;29;20064;-65
2021/12/19 08:57:28;;;;;;;19.55;10.50;;;;;;;5.96;94.66;102754.31;4939133;29;20056;-68
2021/12/19 08:59:55;;;;;;;20.17;11.07;;;;;;;6.02;94.37;102753.38;4940340;29;20496;-66
2021/12/19 09:02:23;;;;;;;20.95;11.15;;;;;;;6.19;93.88;102757.09;4936908;29;20056;-66
2021/12/19 09:04:51;;;;;;;20.15;10.57;;;;;;;6.11;92.85;102760.19;4920196;29;20055;-65
2021/12/19 09:07:18;;;;;;;24.38;12.32;;;;;;;6.00;93.47;102758.22;4920810;29;20159;-65
2021/12/19 09:09:49;;;;;;;20.63;11.75;;;;;;;6.20;92.84;102757.94;4920950;29;20048;-66
2021/12/19 09:12:16;;;;;;;21.30;11.00;;;;;;;6.06;93.39;102759.22;4919925;29;20087;-66
2021/12/19 09:14:46;;;;;;;24.02;12.18;;;;;;;6.09;93.35;102756.00;4921216;29;20475;-66
2021/12/19 09:17:13;;;;;;;;;;;;;;;6.08;93.61;102763.38;4921586;29;20063;-65
2021/12/19 09:19:41;;;;;;;27.05;14.32;;;;;;;6.03;94.13;102759.69;4921835;29;19923;-65
2021/12/19 09:22:08;;;;;;;25.35;13.82;;;;;;;5.66;95.33;102762.50;4904769;29;20075;-66
2021/12/19 09:24:36;;;;;;;25.05;13.00;;;;;;;5.79;95.86;102768.84;4920890;29;20056;-65
2021/12/19 09:27:03;;;;;;;23.70;12.57;;;;;;;5.76;96.38;102761.94;4919720;29;20044;-66
2021/12/19 09:29:30;;;;;;;25.05;13.07;;;;;;;5.93;96.28;102759.41;4920628;29;20051;-65
2021/12/19 09:31:59;;;;;;;25.85;13.80;;;;;;;5.83;95.63;102751.75;4920747;29;20416;-64
2021/12/19 09:34:27;;;;;;;28.65;14.75;;;;;;;5.95;96.40;102760.00;4903671;29;20401;-65
2021/12/19 09:36:56;;;;;;;24.75;12.68;;;;;;;6.11;94.90;102757.44;4920644;29;20056;-67
2021/12/19 09:39:24;;;;;;;24.40;12.65;;;;;;;6.11;93.91;102754.72;4920049;29;20067;-67
2021/12/19 09:41:59;;;;;;;28.08;12.93;;;;;;;6.11;93.67;102760.19;4919087;29;20052;-66
2021/12/19 09:44:26;;;;;;;26.33;13.60;;;;;;;6.00;93.98;102760.97;4920627;29;20044;-67
2021/12/19 09:46:54;;;;;;;23.40;12.60;;;;;;;6.01;94.01;102759.06;4919760;29;20159;-66
2021/12/19 09:49:21;;;;;;;26.02;12.80;;;;;;;6.14;93.43;102762.44;4918871;29;20055;-65
2021/12/19 09:51:50;;;;;;;25.13;13.23;;;;;;;6.11;93.82;102757.44;4919643;29;20052;-66
2021/12/19 09:54:18;;;;;;;23.80;13.30;;;;;;;6.02;93.08;102750.63;4919020;29;20052;-66
2021/12/19 09:56:46;;;;;;;26.15;12.38;;;;;;;6.07;93.28;102758.97;4918946;29;20060;-65
2021/12/19 09:59:16;;;;;;;29.40;15.13;;;;;;;6.15;93.31;102755.91;4918658;29;20063;-65
2021/12/19 10:01:43;;;;;;;36.78;15.52;;;;;;;5.44;95.78;102753.09;4918883;29;20075;-65
2021/12/19 10:04:30;;;;;;;35.25;16.17;;;;;;;5.29;98.39;102749.09;4921412;29;20082;-65
2021/12/19 10:07:13;;;;;;;35.58;17.98;;;;;;;5.70;98.70;102741.81;4938854;29;20062;-65
2021/12/19 10:10:12;;;;;;;36.75;17.70;;;;;;;5.67;96.85;102739.56;4937368;29;20051;-66
2021/12/19 10:15:22;;;;;;;34.55;16.33;;;;;;;5.42;98.55;102741.56;4938776;29;20055;-65
2021/12/19 10:17:59;;;;;;;33.28;16.48;;;;;;;5.62;98.75;102733.09;4938545;29;20044;-66
2021/12/19 10:20:26;;;;;;;25.35;13.27;;;;;;;5.79;96.34;102725.09;4921335;29;20051;-67
2021/12/19 10:22:54;;;;;;;22.35;11.63;;;;;;;5.85;95.07;102733.22;4937286;29;20056;-65
2021/12/19 10:25:30;;;;;;;21.10;10.77;;;;;;;5.77;94.04;102725.31;4937259;29;20089;-66
2021/12/19 10:28:01;;;;;;;22.52;11.68;;;;;;;5.94;94.15;102720.91;4937149;29;20055;-66
2021/12/19 10:30:34;;;;;;;21.77;11.57;;;;;;;6.08;93.38;102725.09;4938658;29;20048;-65
2021/12/19 10:33:12;;;;;;;20.23;10.90;;;;;;;6.04;92.63;102723.88;4938938;29;20141;-65
2021/12/19 10:35:47;;;;;;;20.73;11.20;;;;;;;6.07;93.17;102725.31;4939145;29;20066;-65
2021/12/19 10:38:20;;;;;;;23.45;12.32;;;;;;;6.09;92.87;102714.97;4938557;29;20056;-65
2021/12/19 10:40:50;;;;;;;24.42;13.82;;;;;;;6.15;92.38;102716.78;4938519;29;20125;-66
2021/12/19 10:43:18;;;;;;;31.95;16.27;;;;;;;5.97;92.43;102723.16;4938352;29;20047;-66
2021/12/19 10:45:47;;;;;;;31.92;17.10;;;;;;;5.88;93.86;102719.06;4937509;29;20422;-65
2021/12/19 10:48:24;;;;;;;32.65;17.95;;;;;;;5.96;94.35;102718.75;4938621;29;20064;-66
2021/12/19 10:50:57;;;;;;;29.23;16.02;;;;;;;6.22;93.54;102720.22;4938522;29;20486;-65
2021/12/19 10:53:57;;;;;;;30.65;16.83;;;;;;;6.27;91.96;102710.25;4938286;29;20066;-66
2021/12/19 10:56:26;;;;;;;;;;;;;;;6.26;92.18;102703.09;4938247;29;20477;-65
2021/12/19 10:59:15;;;;;;;28.83;15.73;;;;;;;6.25;91.57;102698.69;4936817;29;19923;-65
2021/12/19 11:01:52;;;;;;;26.02;15.27;;;;;;;5.91;91.03;102701.38;4938137;29;20082;-65
2021/12/19 11:04:21;;;;;;;29.13;16.30;;;;;;;5.95;90.73;102697.09;4919200;29;20063;-68
2021/12/19 11:06:54;;;;;;;26.95;15.43;;;;;;;5.66;91.51;102696.88;4919104;29;20048;-68
2021/12/19 11:09:34;;;;;;;24.83;14.48;;;;;;;5.93;91.31;102691.84;4917476;29;20063;-67
2021/12/19 11:12:01;;;;;;;;;;;;;;;5.88;90.24;102697.19;4902972;29;20415;-67
2021/12/19 11:14:31;;;;;;;27.25;15.65;;;;;;;5.71;91.73;102699.75;4919137;29;19930;-68
2021/12/19 11:16:59;;;;;;;;;;;;;;;5.67;92.46;102694.97;4919537;29;20055;-66
2021/12/19 11:19:27;;;;;;;27.17;16.27;;;;;;;5.65;92.12;102694.34;4902103;29;19934;-68
2021/12/19 11:22:23;;;;;;;30.25;18.80;;;;;;;5.67;92.12;102684.88;4917612;29;20051;-68
2021/12/19 11:24:52;;;;;;;28.40;18.02;;;;;;;5.78;91.76;102679.66;4917601;29;20063;-67
2021/12/19 11:27:20;;;;;;;28.08;17.35;;;;;;;5.80;90.94;102674.81;4902097;29;20052;-67
2021/12/19 11:29:50;;;;;;;26.08;16.33;;;;;;;5.73;90.85;102663.97;4918307;29;20056;-68
2021/12/19 11:32:19;;;;;;;24.27;15.63;;;;;;;5.95;90.07;102651.44;4923016;29;20048;-69
2021/12/19 11:35:07;;;;;;;25.27;16.30;;;;;;;5.85;90.07;102667.59;4921817;29;20067;-67
2021/12/19 11:37:41;;;;;;;23.60;14.63;;;;;;;6.06;88.77;102658.84;4921414;29;20052;-67
2021/12/19 11:40:14;;;;;;;23.85;14.63;;;;;;;6.26;87.89;102659.31;4921503;29;20060;-68
2021/12/19 11:42:42;;;;;;;24.70;15.10;;;;;;;6.15;88.07;102646.47;4906090;29;20059;-67
2021/12/19 11:48:00;;;;;;;22.65;13.93;;;;;;;6.04;88.13;102639.09;4923099;29;20060;-68
2021/12/19 11:50:34;;;;;;;21.52;13.35;;;;;;;6.02;87.27;102633.00;4921519;29;20056;-67
2021/12/19 11:53:07;;;;;;;21.17;14.07;;;;;;;6.10;87.08;102629.91;4922489;29;20459;-65
2021/12/19 11:55:38;;;;;;;23.88;14.70;;;;;;;6.07;87.66;102622.19;4922538;29;20060;-66
2021/12/19 11:58:08;;;;;;;27.90;16.25;;;;;;;6.22;87.62;102629.94;4922724;29;20499;-66
2021/12/19 12:00:39;;;;;;;23.27;14.85;;;;;;;6.16;86.91;102620.78;4921181;29;20055;-69
2021/12/19 12:03:12;;;;;;;24.38;14.43;;;;;;;6.24;87.02;102625.88;4931144;29;20056;-68
2021/12/19 12:05:47;;;;;;;23.10;15.20;;;;;;;6.27;86.88;102619.94;4941496;29;20063;-67
2021/12/19 12:08:18;;;;;;;24.75;15.60;;;;;;;6.41;86.20;102607.69;4942022;29;20060;-67
2021/12/19 12:10:53;;;;;;;26.00;16.00;;;;;;;6.46;86.14;102606.94;4941297;29;20055;-68
2021/12/19 12:13:27;;;;;;;26.83;16.73;;;;;;;6.31;86.01;102596.47;4941383;29;20056;-68
2021/12/19 12:16:07;;;;;;;28.17;16.63;;;;;;;6.24;87.07;102601.25;4940674;29;20058;-68
2021/12/19 12:18:40;;;;;;;27.13;17.27;;;;;;;6.36;86.66;102604.81;4940157;29;20066;-67
2021/12/19 12:21:25;;;;;;;25.38;15.50;;;;;;;6.25;87.55;102599.34;4940955;29;20056;-67
2021/12/19 12:23:59;;;;;;;27.38;16.73;;;;;;;6.28;87.61;102590.66;4941077;29;20052;-68
2021/12/19 12:26:29;;;;;;;25.77;15.65;;;;;;;6.44;86.67;102582.56;4939851;29;20063;-68
2021/12/19 12:28:57;;;;;;;24.27;15.00;;;;;;;6.57;86.18;102585.00;4940802;29;20055;-68
2021/12/19 12:31:25;;;;;;;22.58;14.60;;;;;;;6.54;86.55;102573.72;4939567;29;20499;-67
2021/12/19 12:33:53;;;;;;;25.00;15.43;;;;;;;6.63;86.33;102586.81;4955505;28;20062;-67
2021/12/19 12:36:22;;;;;;;29.73;17.40;;;;;;;6.78;86.16;102567.94;4955261;29;20063;-67
2021/12/19 12:38:51;;;;;;;28.00;17.50;;;;;;;6.89;85.75;102573.66;4939325;29;20056;-67
2021/12/19 12:44:08;;;;;;;27.52;17.27;;;;;;;6.56;86.22;102566.09;4940606;29;20044;-67
2021/12/19 12:46:36;;;;;;;33.03;21.23;;;;;;;6.64;87.19;102552.06;4939387;29;20055;-68